createdAt,value
2018-09-20T00:01:23.550Z,21.20
2018-09-20T00:05:26.876Z,21.10
2018-09-20T00:09:30.212Z,21.10
2018-09-20T00:13:33.565Z,21.00
2018-09-20T00:17:36.896Z,21.00
2018-09-20T00:21:40.194Z,21.00
2018-09-20T00:25:43.528Z,20.90
2018-09-20T00:29:46.857Z,20.90
2018-09-20T00:33:50.213Z,20.80
2018-09-20T00:37:53.547Z,20.80
2018-09-20T00:41:56.897Z,20.70
2018-09-20T00:46:00.227Z,20.70
2018-09-20T00:50:03.701Z,20.60
2018-09-20T00:54:07.808Z,20.60
2018-09-20T00:58:11.147Z,20.50
2018-09-20T01:02:14.468Z,20.50
2018-09-20T01:06:17.835Z,20.40
2018-09-20T01:10:21.307Z,20.40
2018-09-20T01:14:24.640Z,20.30
2018-09-20T01:18:27.970Z,20.20
2018-09-20T01:22:31.298Z,20.20
2018-09-20T01:26:34.652Z,20.10
2018-09-20T01:30:37.999Z,20.10
2018-09-20T01:34:41.323Z,20.00
2018-09-20T01:38:44.655Z,20.00
2018-09-20T01:42:47.988Z,19.90
2018-09-20T01:46:51.302Z,19.90
2018-09-20T01:50:54.630Z,19.80
2018-09-20T01:54:57.982Z,19.70
2018-09-20T01:59:01.339Z,19.70
2018-09-20T02:03:04.675Z,19.70
2018-09-20T02:07:08.022Z,19.60
2018-09-20T02:11:11.383Z,19.50
2018-09-20T02:15:14.765Z,19.50
2018-09-20T02:19:18.096Z,19.40
2018-09-20T02:23:21.444Z,19.40
2018-09-20T02:27:24.787Z,19.40
2018-09-20T02:31:28.127Z,19.40
2018-09-20T02:35:31.544Z,19.30
2018-09-20T02:44:37.680Z,19.20
2018-09-20T02:48:40.994Z,19.20
2018-09-20T02:52:44.344Z,19.20
2018-09-20T02:56:47.668Z,19.10
2018-09-20T03:00:51.118Z,19.10
2018-09-20T03:04:54.465Z,19.00
2018-09-20T03:08:57.768Z,19.00
2018-09-20T03:13:01.120Z,19.00
2018-09-20T03:17:04.455Z,19.00
2018-09-20T03:21:07.793Z,18.90
2018-09-20T03:25:11.162Z,18.90
2018-09-20T03:29:14.464Z,18.90
2018-09-20T03:33:17.816Z,18.90
2018-09-20T03:37:21.140Z,18.90
2018-09-20T03:41:24.493Z,18.80
2018-09-20T03:45:27.926Z,18.80
2018-09-20T03:49:31.259Z,18.80
2018-09-20T03:53:34.594Z,18.70
2018-09-20T03:57:37.948Z,18.70
2018-09-20T04:01:41.282Z,18.70
2018-09-20T04:05:44.638Z,18.70
2018-09-20T04:09:48.075Z,18.70
2018-09-20T04:13:51.390Z,18.70
2018-09-20T04:17:54.819Z,18.70
2018-09-20T04:21:58.175Z,18.70
2018-09-20T04:26:01.504Z,18.70
2018-09-20T04:30:05.245Z,18.70
2018-09-20T04:34:08.592Z,18.70
2018-09-20T04:38:12.040Z,18.70
2018-09-20T04:42:15.391Z,18.70
2018-09-20T04:46:18.935Z,18.70
2018-09-20T04:50:22.276Z,18.70
2018-09-20T04:54:25.578Z,18.70
2018-09-20T04:58:28.898Z,18.70
2018-09-20T05:02:32.244Z,18.60
2018-09-20T05:06:35.589Z,18.60
2018-09-20T05:10:38.955Z,18.60
2018-09-20T05:14:42.314Z,18.60
2018-09-20T05:18:45.662Z,18.50
2018-09-20T05:22:48.984Z,18.50
2018-09-20T05:26:52.318Z,18.50
2018-09-20T05:30:55.660Z,18.50
2018-09-20T05:34:59.007Z,18.40
2018-09-20T05:39:02.362Z,18.40
2018-09-20T05:43:05.715Z,18.40
2018-09-20T05:47:09.066Z,18.40
2018-09-20T05:51:12.407Z,18.40
2018-09-20T05:55:15.712Z,18.40
2018-09-20T06:00:02.491Z,18.50
2018-09-20T06:04:05.825Z,18.50
2018-09-20T06:08:09.183Z,18.60
2018-09-20T06:12:12.543Z,18.60
2018-09-20T06:16:15.901Z,18.60
2018-09-20T06:20:19.219Z,18.70
2018-09-20T06:24:22.630Z,18.70
2018-09-20T06:28:25.957Z,18.80
2018-09-20T06:32:29.579Z,18.80
2018-09-20T06:36:32.920Z,18.90
2018-09-20T06:40:36.268Z,19.00
2018-09-20T06:44:39.648Z,19.00
2018-09-20T06:48:43.027Z,19.10
2018-09-20T06:52:46.372Z,19.20
2018-09-20T06:56:49.811Z,19.30
2018-09-20T07:00:53.263Z,19.40
2018-09-20T07:04:56.619Z,19.50
2018-09-20T07:09:00.030Z,19.70
2018-09-20T07:13:12.088Z,19.90
2018-09-20T07:17:15.435Z,20.10
2018-09-20T07:21:18.774Z,20.30
2018-09-20T07:25:22.226Z,20.50
2018-09-20T07:29:25.469Z,20.70
2018-09-20T07:33:28.880Z,20.90
2018-09-20T07:37:32.239Z,21.10
2018-09-20T07:41:35.583Z,21.30
2018-09-20T07:45:38.969Z,21.50
2018-09-20T07:53:45.455Z,21.90
2018-09-20T07:57:48.764Z,22.00
2018-09-20T08:05:55.306Z,22.40
2018-09-20T08:09:58.676Z,22.60
2018-09-20T08:14:02.058Z,22.80
2018-09-20T08:18:05.414Z,23.00
2018-09-20T08:22:08.740Z,23.20
2018-09-20T08:26:12.091Z,23.40
2018-09-20T08:30:15.431Z,23.70
2018-09-20T08:34:18.862Z,23.90
2018-09-20T08:38:22.263Z,24.20
2018-09-20T08:42:25.599Z,24.40
2018-09-20T08:46:28.942Z,24.60
2018-09-20T08:50:32.291Z,24.80
2018-09-20T08:54:35.636Z,25.00
2018-09-20T08:58:38.992Z,25.20
2018-09-20T09:02:42.349Z,25.40
2018-09-20T09:06:45.708Z,25.50
2018-09-20T09:10:49.111Z,25.70
2018-09-20T09:22:58.856Z,26.00
2018-09-20T09:27:02.200Z,26.10
2018-09-20T09:31:05.548Z,26.20
2018-09-20T09:35:08.894Z,26.30
2018-09-20T09:39:13.170Z,26.50
2018-09-20T09:43:16.508Z,26.70
2018-09-20T09:47:19.883Z,26.80
2018-09-20T09:51:23.226Z,27.00
2018-09-20T09:55:26.592Z,27.10
2018-09-20T09:59:29.955Z,27.30
2018-09-20T10:03:33.279Z,27.40
2018-09-20T10:07:36.642Z,27.50
2018-09-20T10:11:40.405Z,27.50
2018-09-20T10:15:43.812Z,27.60
2018-09-20T10:19:47.272Z,27.60
2018-09-20T10:23:50.627Z,27.70
2018-09-20T10:27:53.940Z,27.90
2018-09-20T10:31:57.315Z,28.00
2018-09-20T10:36:00.705Z,28.00
2018-09-20T10:40:04.412Z,28.00
2018-09-20T10:44:07.798Z,27.90
2018-09-20T10:48:11.551Z,27.70
2018-09-20T10:52:14.927Z,27.70
2018-09-20T10:56:18.298Z,27.70
2018-09-20T11:00:21.640Z,27.70
2018-09-20T11:04:24.947Z,27.80
2018-09-20T11:08:28.298Z,27.80
2018-09-20T11:12:31.647Z,27.90
2018-09-20T11:16:34.983Z,28.00
2018-09-20T11:20:38.328Z,28.10
2018-09-20T11:24:42.201Z,28.20
2018-09-20T11:28:45.561Z,28.40
2018-09-20T11:32:48.915Z,28.60
2018-09-20T11:36:52.279Z,28.70
2018-09-20T11:40:55.614Z,28.80
2018-09-20T11:44:58.929Z,28.80
2018-09-20T11:49:02.310Z,28.70
2018-09-20T11:53:05.663Z,28.70
2018-09-20T11:57:09.015Z,28.60
2018-09-20T12:01:12.439Z,28.60
2018-09-20T12:05:15.777Z,28.60
2018-09-20T12:09:19.136Z,28.50
2018-09-20T12:13:22.494Z,28.40
2018-09-20T12:17:25.848Z,28.40
2018-09-20T12:21:29.287Z,28.40
2018-09-20T12:25:32.631Z,28.40
2018-09-20T12:29:36.001Z,28.40
2018-09-20T12:33:39.356Z,28.30
2018-09-20T12:37:42.699Z,28.30
2018-09-20T12:41:46.052Z,28.10
2018-09-20T12:45:49.601Z,28.10
2018-09-20T12:49:52.949Z,28.00
2018-09-20T12:53:56.348Z,28.00
2018-09-20T12:57:59.692Z,27.90
2018-09-20T13:02:03.095Z,27.90
2018-09-20T13:06:06.396Z,27.90
2018-09-20T13:10:09.788Z,27.90
2018-09-20T13:14:13.114Z,27.80
2018-09-20T13:18:16.479Z,27.80
2018-09-20T13:22:19.830Z,27.90
2018-09-20T13:26:23.199Z,27.80
2018-09-20T13:30:26.535Z,27.70
2018-09-20T13:34:29.883Z,27.70
2018-09-20T13:38:33.240Z,27.70
2018-09-20T13:42:36.664Z,27.60
2018-09-20T13:46:40.019Z,27.60
2018-09-20T13:50:43.428Z,27.60
2018-09-20T13:54:46.776Z,27.60
2018-09-20T13:58:50.098Z,27.60
2018-09-20T14:02:53.420Z,27.50
2018-09-20T14:06:56.741Z,27.40
2018-09-20T14:11:00.140Z,27.40
2018-09-20T14:15:03.856Z,27.40
2018-09-20T14:19:07.353Z,27.50
2018-09-20T14:23:10.727Z,27.50
2018-09-20T14:27:14.053Z,27.60
2018-09-20T14:31:17.347Z,27.60
2018-09-20T14:35:20.696Z,27.60
2018-09-20T14:39:24.044Z,27.70
2018-09-20T14:43:27.375Z,27.70
2018-09-20T14:47:30.746Z,27.80
2018-09-20T14:51:34.067Z,27.80
2018-09-20T14:55:37.432Z,27.90
2018-09-20T14:59:40.806Z,28.00
2018-09-20T15:03:44.122Z,28.00
2018-09-20T15:07:47.467Z,28.10
2018-09-20T15:11:50.787Z,28.20
2018-09-20T15:15:54.104Z,28.20
2018-09-20T15:19:57.485Z,28.30
2018-09-20T15:24:00.830Z,28.40
2018-09-20T15:28:04.196Z,28.50
2018-09-20T15:32:07.858Z,28.70
2018-09-20T15:36:11.259Z,28.80
2018-09-20T15:40:14.610Z,29.00
2018-09-20T15:44:18.026Z,29.20
2018-09-20T15:48:21.408Z,29.30
2018-09-20T15:52:24.822Z,29.40
2018-09-20T15:56:28.259Z,29.40
2018-09-20T16:00:31.588Z,29.50
2018-09-20T16:04:34.931Z,29.50
